createdAt,value
2018-05-03T00:00:25.674Z,1004.75
2018-05-03T00:01:25.660Z,1004.77
2018-05-03T00:02:25.630Z,1004.79
2018-05-03T00:03:25.610Z,1004.80
2018-05-03T00:04:25.649Z,1004.77
2018-05-03T00:05:25.642Z,1004.76
2018-05-03T00:06:25.570Z,1004.78
2018-05-03T00:07:25.551Z,1004.79
2018-05-03T00:08:25.633Z,1004.74
2018-05-03T00:09:25.838Z,1004.75
2018-05-03T00:10:25.604Z,1004.77
2018-05-03T00:11:25.488Z,1004.76
2018-05-03T00:12:25.523Z,1004.78
2018-05-03T00:13:25.791Z,1004.76
2018-05-03T00:14:25.782Z,1004.78
2018-05-03T00:15:25.428Z,1004.76
2018-05-03T00:16:25.475Z,1004.75
2018-05-03T00:17:25.700Z,1004.73
2018-05-03T00:18:25.839Z,1004.75
2018-05-03T00:19:25.690Z,1004.76
2018-05-03T00:20:25.458Z,1004.74
2018-05-03T00:21:25.538Z,1004.71
2018-05-03T00:22:25.324Z,1004.75
2018-05-03T00:23:25.322Z,1004.72
2018-05-03T00:24:25.546Z,1004.74
2018-05-03T00:25:25.289Z,1004.70
2018-05-03T00:26:25.674Z,1004.69
2018-05-03T00:27:25.570Z,1004.70
2018-05-03T00:28:25.483Z,1004.71
2018-05-03T00:29:26.145Z,1004.71
2018-05-03T00:32:25.489Z,1004.73
2018-05-03T00:33:25.480Z,1004.73
2018-05-03T00:34:25.680Z,1004.73
2018-05-03T00:35:25.471Z,1004.74
2018-05-03T00:36:25.134Z,1004.78
2018-05-03T00:37:25.140Z,1004.78
2018-05-03T00:38:25.089Z,1004.78
2018-05-03T00:39:25.448Z,1004.82
2018-05-03T00:40:25.376Z,1004.82
2018-05-03T00:41:25.357Z,1004.84
2018-05-03T00:42:25.561Z,1004.85
2018-05-03T00:43:25.010Z,1004.84
2018-05-03T00:44:24.985Z,1004.85
2018-05-03T00:45:24.969Z,1004.87
2018-05-03T00:46:24.955Z,1004.91
2018-05-03T00:47:24.939Z,1004.85
2018-05-03T00:48:24.926Z,1004.86
2018-05-03T00:49:24.907Z,1004.88
2018-05-03T00:50:25.211Z,1004.89
2018-05-03T00:51:25.409Z,1004.89
2018-05-03T00:52:26.609Z,1004.89
2018-05-03T00:53:25.614Z,1004.83
2018-05-03T00:54:25.798Z,1004.89
2018-05-03T00:55:24.818Z,1004.91
2018-05-03T00:56:24.801Z,1004.90
2018-05-03T00:57:24.788Z,1004.95
2018-05-03T00:58:24.785Z,1004.91
2018-05-03T00:59:24.767Z,1004.92
2018-05-03T01:00:24.745Z,1004.93
2018-05-03T01:01:24.730Z,1004.94
2018-05-03T01:02:24.725Z,1004.98
2018-05-03T01:03:24.698Z,1004.99
2018-05-03T01:04:24.694Z,1004.99
2018-05-03T01:05:25.590Z,1004.99
2018-05-03T01:06:24.977Z,1005.04
2018-05-03T01:07:24.969Z,1005.04
2018-05-03T01:08:24.963Z,1005.04
2018-05-03T01:09:24.929Z,1005.03
2018-05-03T01:10:24.905Z,1005.01
2018-05-03T01:11:25.528Z,1005.03
2018-05-03T01:12:24.558Z,1005.08
2018-05-03T01:13:24.860Z,1005.06
2018-05-03T01:14:24.529Z,1005.08
2018-05-03T01:15:24.515Z,1005.10
2018-05-03T01:16:24.501Z,1005.11
2018-05-03T01:17:24.483Z,1005.07
2018-05-03T01:18:24.470Z,1005.08
2018-05-03T01:19:24.459Z,1005.13
2018-05-03T01:20:24.439Z,1005.14
2018-05-03T01:21:24.428Z,1005.14
2018-05-03T01:22:24.420Z,1005.16
2018-05-03T01:23:24.389Z,1005.14
2018-05-03T01:24:24.373Z,1005.18
2018-05-03T01:25:24.359Z,1005.25
2018-05-03T01:26:24.347Z,1005.28
2018-05-03T01:27:24.329Z,1005.30
2018-05-03T01:28:24.317Z,1005.30
2018-05-03T01:29:24.297Z,1005.28
2018-05-03T01:30:24.292Z,1005.31
2018-05-03T01:31:24.268Z,1005.31
2018-05-03T01:32:24.257Z,1005.36
2018-05-03T01:33:24.239Z,1005.35
2018-05-03T01:34:24.219Z,1005.38
2018-05-03T01:35:24.208Z,1005.39
2018-05-03T01:36:24.190Z,1005.37
2018-05-03T01:37:24.180Z,1005.38
2018-05-03T01:38:24.158Z,1005.36
2018-05-03T01:39:24.147Z,1005.36
2018-05-03T01:40:24.128Z,1005.46
2018-05-03T01:41:24.121Z,1005.38
2018-05-03T01:42:24.098Z,1005.44
2018-05-03T01:43:24.089Z,1005.49
2018-05-03T01:44:24.068Z,1005.48
2018-05-03T01:45:24.052Z,1005.49
2018-05-03T01:46:24.036Z,1005.55
2018-05-03T01:47:24.018Z,1005.56
2018-05-03T01:48:24.004Z,1005.57
2018-05-03T01:49:23.987Z,1005.55
2018-05-03T01:50:23.974Z,1005.58
2018-05-03T01:51:23.965Z,1005.57
2018-05-03T01:52:23.940Z,1005.55
2018-05-03T01:53:23.926Z,1005.57
2018-05-03T01:54:23.911Z,1005.55
2018-05-03T01:55:23.895Z,1005.59
2018-05-03T01:56:23.879Z,1005.54
2018-05-03T01:57:23.870Z,1005.62
2018-05-03T01:58:23.850Z,1005.59
2018-05-03T01:59:23.833Z,1005.59
2018-05-03T02:00:23.816Z,1005.63
2018-05-03T02:01:23.809Z,1005.62
2018-05-03T02:02:23.790Z,1005.64
2018-05-03T02:03:23.770Z,1005.63
2018-05-03T02:04:23.752Z,1005.61
2018-05-03T02:05:23.890Z,1005.60
2018-05-03T02:06:23.721Z,1005.64
2018-05-03T02:07:23.714Z,1005.57
2018-05-03T02:08:23.692Z,1005.59
2018-05-03T02:09:23.682Z,1005.57
2018-05-03T02:10:23.660Z,1005.61
2018-05-03T02:11:23.648Z,1005.63
2018-05-03T02:12:23.628Z,1005.68
2018-05-03T02:13:23.718Z,1005.72
2018-05-03T02:14:23.599Z,1005.75
2018-05-03T02:15:23.589Z,1005.72
2018-05-03T02:16:23.564Z,1005.74
2018-05-03T02:17:23.557Z,1005.74
2018-05-03T02:18:23.542Z,1005.73
2018-05-03T02:19:23.519Z,1005.80
2018-05-03T02:20:23.504Z,1005.83
2018-05-03T02:21:23.485Z,1005.85
2018-05-03T02:22:23.474Z,1005.83
2018-05-03T02:23:23.460Z,1005.92
2018-05-03T02:24:23.446Z,1005.98
2018-05-03T02:25:23.428Z,1006.02
2018-05-03T02:26:23.413Z,1005.97
2018-05-03T02:27:23.403Z,1005.98
2018-05-03T02:28:23.377Z,1005.97
2018-05-03T02:29:23.362Z,1005.96
2018-05-03T02:30:23.349Z,1006.00
2018-05-03T02:31:23.342Z,1006.01
2018-05-03T02:32:23.319Z,1006.03
2018-05-03T02:33:23.304Z,1006.09
2018-05-03T02:34:23.289Z,1006.04
2018-05-03T02:35:23.268Z,1006.07
2018-05-03T02:36:23.252Z,1006.08
2018-05-03T02:37:23.236Z,1006.07
2018-05-03T02:38:23.222Z,1006.11
2018-05-03T02:39:23.203Z,1006.08
2018-05-03T02:40:23.191Z,1006.09
2018-05-03T02:41:23.172Z,1006.11
2018-05-03T02:42:23.160Z,1006.13
2018-05-03T02:43:23.142Z,1006.17
2018-05-03T02:44:23.125Z,1006.16
2018-05-03T02:45:23.118Z,1006.15
2018-05-03T02:46:23.097Z,1006.12
2018-05-03T02:47:23.079Z,1006.17
2018-05-03T02:48:23.062Z,1006.19
2018-05-03T02:49:23.048Z,1006.19
2018-05-03T02:50:23.030Z,1006.22
2018-05-03T02:51:23.020Z,1006.24
2018-05-03T02:52:22.999Z,1006.26
2018-05-03T02:53:22.991Z,1006.27
2018-05-03T02:54:22.967Z,1006.31
2018-05-03T02:55:22.957Z,1006.33
2018-05-03T02:56:22.942Z,1006.34
2018-05-03T02:57:22.921Z,1006.34
2018-05-03T02:58:22.905Z,1006.33
2018-05-03T02:59:22.889Z,1006.36
2018-05-03T03:00:22.874Z,1006.39
2018-05-03T03:01:22.859Z,1006.42
2018-05-03T03:02:22.850Z,1006.43
2018-05-03T03:03:22.835Z,1006.49
2018-05-03T03:04:22.809Z,1006.51
2018-05-03T03:05:22.795Z,1006.55
2018-05-03T03:06:22.781Z,1006.58
2018-05-03T03:07:22.761Z,1006.58
2018-05-03T03:08:22.748Z,1006.55
2018-05-03T03:09:22.730Z,1006.57
2018-05-03T03:10:22.716Z,1006.56
2018-05-03T03:11:22.700Z,1006.56
2018-05-03T03:12:22.691Z,1006.58
2018-05-03T03:13:22.668Z,1006.59
2018-05-03T03:14:22.649Z,1006.64
2018-05-03T03:15:22.640Z,1006.65
2018-05-03T03:16:22.621Z,1006.61
2018-05-03T03:17:22.609Z,1006.65
2018-05-03T03:18:22.589Z,1006.64
2018-05-03T03:19:22.569Z,1006.66
2018-05-03T03:20:22.561Z,1006.67
2018-05-03T03:21:22.539Z,1006.70
2018-05-03T03:22:22.525Z,1006.65
2018-05-03T03:23:22.517Z,1006.69
2018-05-03T03:24:22.493Z,1006.65
2018-05-03T03:25:22.479Z,1006.66
2018-05-03T03:26:22.459Z,1006.65
2018-05-03T03:27:22.449Z,1006.67
2018-05-03T03:28:22.430Z,1006.67
2018-05-03T03:29:22.420Z,1006.72
2018-05-03T03:30:22.400Z,1006.72
2018-05-03T03:31:22.395Z,1006.72
2018-05-03T03:32:22.369Z,1006.74
2018-05-03T03:33:22.349Z,1006.78
2018-05-03T03:34:22.346Z,1006.79
2018-05-03T03:35:22.320Z,1006.80
2018-05-03T03:36:22.309Z,1006.81
2018-05-03T03:37:22.288Z,1006.85
2018-05-03T03:38:22.280Z,1006.86
2018-05-03T03:39:22.261Z,1006.85
2018-05-03T03:40:22.239Z,1006.86
2018-05-03T03:41:22.230Z,1006.90
2018-05-03T03:42:22.209Z,1006.86
2018-05-03T03:43:22.197Z,1006.87
2018-05-03T03:44:22.179Z,1006.83
2018-05-03T03:45:22.171Z,1006.84
2018-05-03T03:46:22.149Z,1006.87
2018-05-03T03:47:22.140Z,1006.85
2018-05-03T03:48:22.120Z,1006.90
2018-05-03T03:49:22.111Z,1006.88
2018-05-03T03:50:22.090Z,1006.85
2018-05-03T03:51:22.070Z,1006.90
2018-05-03T03:52:22.051Z,1006.84
2018-05-03T03:53:22.266Z,1006.91
2018-05-03T03:54:22.019Z,1006.89
2018-05-03T03:55:22.011Z,1006.91
2018-05-03T03:56:21.989Z,1006.91
2018-05-03T03:57:21.980Z,1006.89
2018-05-03T03:58:21.958Z,1006.95
2018-05-03T03:59:21.947Z,1006.94
2018-05-03T04:00:21.930Z,1006.95
2018-05-03T04:01:21.910Z,1006.96
2018-05-03T04:02:21.904Z,1006.98
2018-05-03T04:03:21.878Z,1006.97
2018-05-03T04:04:21.871Z,1007.00
2018-05-03T04:05:21.853Z,1006.99
2018-05-03T04:06:21.830Z,1006.98
2018-05-03T04:07:21.821Z,1006.96
2018-05-03T04:08:21.801Z,1006.98
2018-05-03T04:09:21.791Z,1006.98
2018-05-03T04:10:21.772Z,1007.00
2018-05-03T04:11:21.759Z,1007.01
2018-05-03T04:12:21.739Z,1007.04
2018-05-03T04:13:21.730Z,1007.05
2018-05-03T04:14:21.707Z,1007.04
2018-05-03T04:15:21.691Z,1007.05
2018-05-03T04:16:21.680Z,1007.06
2018-05-03T04:17:21.665Z,1007.09
2018-05-03T04:18:21.649Z,1007.12
2018-05-03T04:19:21.636Z,1007.12
2018-05-03T04:20:21.610Z,1007.15
2018-05-03T04:21:21.597Z,1007.19
2018-05-03T04:22:21.624Z,1007.14
2018-05-03T04:23:21.566Z,1007.18
2018-05-03T04:24:21.551Z,1007.16
2018-05-03T04:25:21.532Z,1007.18
2018-05-03T04:26:21.516Z,1007.19
2018-05-03T04:27:21.503Z,1007.19
2018-05-03T04:28:21.489Z,1007.24
2018-05-03T04:29:21.470Z,1007.26
2018-05-03T04:30:21.464Z,1007.30
2018-05-03T04:31:21.439Z,1007.33
2018-05-03T04:32:21.421Z,1007.34
2018-05-03T04:33:21.447Z,1007.31
2018-05-03T04:34:21.392Z,1007.37
2018-05-03T04:35:21.412Z,1007.36
2018-05-03T04:36:21.358Z,1007.41
2018-05-03T04:37:21.339Z,1007.45
2018-05-03T04:38:21.331Z,1007.50
2018-05-03T04:39:21.327Z,1007.52
2018-05-03T04:40:21.294Z,1007.56
2018-05-03T04:41:21.282Z,1007.56
2018-05-03T04:42:21.269Z,1007.56
2018-05-03T04:43:21.312Z,1007.55
2018-05-03T04:44:21.235Z,1007.56
2018-05-03T04:45:21.210Z,1007.58
2018-05-03T04:46:21.200Z,1007.61
2018-05-03T04:47:21.287Z,1007.55
2018-05-03T04:48:21.170Z,1007.58
2018-05-03T04:49:21.159Z,1007.59
2018-05-03T04:50:21.251Z,1007.60
2018-05-03T04:51:21.115Z,1007.67
2018-05-03T04:52:21.100Z,1007.69
2018-05-03T04:53:21.100Z,1007.70
2018-05-03T04:54:21.218Z,1007.71
2018-05-03T04:55:21.050Z,1007.76
2018-05-03T04:56:21.138Z,1007.73
2018-05-03T04:57:21.018Z,1007.73
2018-05-03T04:58:21.106Z,1007.77
2018-05-03T04:59:20.989Z,1007.76
2018-05-03T05:00:21.072Z,1007.75
2018-05-03T05:01:20.959Z,1007.80
2018-05-03T05:02:21.041Z,1007.83
2018-05-03T05:03:20.926Z,1007.86
2018-05-03T05:04:20.921Z,1007.91
2018-05-03T05:05:20.890Z,1007.94
2018-05-03T05:06:20.901Z,1007.96
2018-05-03T05:07:20.860Z,1007.99
2018-05-03T05:08:20.845Z,1008.02
2018-05-03T05:09:20.827Z,1008.02
2018-05-03T05:10:20.812Z,1008.04
2018-05-03T05:11:20.801Z,1008.04
2018-05-03T05:12:20.833Z,1008.05
2018-05-03T05:13:20.766Z,1008.08
2018-05-03T05:14:20.850Z,1008.08
2018-05-03T05:15:20.733Z,1008.13
2018-05-03T05:16:20.761Z,1008.21
2018-05-03T05:17:20.700Z,1008.25
2018-05-03T05:18:20.684Z,1008.27
2018-05-03T05:19:20.674Z,1008.27
2018-05-03T05:20:20.648Z,1008.27
2018-05-03T05:21:20.631Z,1008.25
2018-05-03T05:22:20.618Z,1008.26
2018-05-03T05:23:20.600Z,1008.28
2018-05-03T05:24:20.583Z,1008.28
2018-05-03T05:25:20.575Z,1008.31
2018-05-03T05:26:20.549Z,1008.32
2018-05-03T05:27:20.535Z,1008.33
2018-05-03T05:28:20.518Z,1008.28
2018-05-03T05:29:20.510Z,1008.35
2018-05-03T05:30:20.487Z,1008.36
2018-05-03T05:31:20.470Z,1008.41
2018-05-03T05:32:20.455Z,1008.45
2018-05-03T05:33:20.439Z,1008.47
2018-05-03T05:34:20.427Z,1008.51
2018-05-03T05:35:20.421Z,1008.54
2018-05-03T05:36:20.480Z,1008.52
2018-05-03T05:37:20.380Z,1008.52
2018-05-03T05:38:20.363Z,1008.57
2018-05-03T05:39:20.347Z,1008.58
2018-05-03T05:40:20.372Z,1008.59
2018-05-03T05:41:20.308Z,1008.59
2018-05-03T05:42:20.300Z,1008.58
2018-05-03T05:43:20.282Z,1008.63
2018-05-03T05:44:20.303Z,1008.62
2018-05-03T05:45:20.257Z,1008.65
2018-05-03T05:46:20.241Z,1008.70
2018-05-03T05:47:20.220Z,1008.72
2018-05-03T05:48:20.203Z,1008.74
2018-05-03T05:49:20.190Z,1008.77
2018-05-03T05:50:20.169Z,1008.83
2018-05-03T05:51:20.261Z,1008.85
2018-05-03T05:52:20.140Z,1008.91
2018-05-03T05:53:20.130Z,1008.92
2018-05-03T05:54:20.109Z,1008.93
2018-05-03T05:55:20.100Z,1008.94
2018-05-03T05:56:20.075Z,1008.98
2018-05-03T05:57:20.062Z,1008.98
2018-05-03T05:58:20.050Z,1009.02
2018-05-03T05:59:20.032Z,1009.01
2018-05-03T06:00:20.016Z,1009.05
2018-05-03T06:01:19.999Z,1009.07
2018-05-03T06:02:19.984Z,1009.08
2018-05-03T06:03:19.971Z,1009.08
2018-05-03T06:04:19.974Z,1009.06
2018-05-03T06:05:19.941Z,1009.06
2018-05-03T06:06:19.922Z,1009.08
2018-05-03T06:07:19.906Z,1009.11
2018-05-03T06:08:19.891Z,1009.09
2018-05-03T06:09:19.880Z,1009.13
2018-05-03T06:10:19.939Z,1009.11
2018-05-03T06:11:19.849Z,1009.13
2018-05-03T06:12:19.839Z,1009.11
2018-05-03T06:13:19.819Z,1009.11
2018-05-03T06:14:19.800Z,1009.14
2018-05-03T06:15:19.790Z,1009.16
2018-05-03T06:16:19.774Z,1009.18
2018-05-03T06:17:19.760Z,1009.22
2018-05-03T06:18:19.742Z,1009.22
2018-05-03T06:19:19.727Z,1009.23
2018-05-03T06:20:19.714Z,1009.27
2018-05-03T06:21:19.699Z,1009.28
2018-05-03T06:22:19.683Z,1009.30
2018-05-03T06:23:19.671Z,1009.30
2018-05-03T06:24:19.654Z,1009.31
2018-05-03T06:25:19.641Z,1009.39
2018-05-03T06:26:19.622Z,1009.37
2018-05-03T06:27:19.608Z,1009.35
2018-05-03T06:28:19.595Z,1009.33
2018-05-03T06:29:19.578Z,1009.34
2018-05-03T06:30:19.571Z,1009.36
2018-05-03T06:31:19.550Z,1009.40
2018-05-03T06:32:19.538Z,1009.40
2018-05-03T06:33:19.527Z,1009.42
2018-05-03T06:34:19.514Z,1009.46
2018-05-03T06:35:19.496Z,1009.46
2018-05-03T06:36:19.486Z,1009.49
2018-05-03T06:37:19.461Z,1009.55
2018-05-03T06:38:19.451Z,1009.55
2018-05-03T06:39:19.431Z,1009.56
2018-05-03T06:40:19.420Z,1009.59
2018-05-03T06:41:19.402Z,1009.61
2018-05-03T06:42:19.401Z,1009.59
2018-05-03T06:43:19.374Z,1009.60
2018-05-03T06:44:19.355Z,1009.65
2018-05-03T06:45:19.421Z,1009.63
2018-05-03T06:46:19.332Z,1009.62
2018-05-03T06:47:19.392Z,1009.68
2018-05-03T06:48:19.300Z,1009.67
2018-05-03T06:49:19.290Z,1009.68
2018-05-03T06:50:19.277Z,1009.67
2018-05-03T06:51:19.263Z,1009.68
2018-05-03T06:52:19.249Z,1009.68
2018-05-03T06:53:19.315Z,1009.72
2018-05-03T06:54:19.221Z,1009.71
2018-05-03T06:55:19.357Z,1009.76
2018-05-03T06:56:19.190Z,1009.76
2018-05-03T06:57:19.174Z,1009.75
2018-05-03T06:58:19.166Z,1009.74
2018-05-03T06:59:19.201Z,1009.75
2018-05-03T07:00:19.140Z,1009.79
2018-05-03T07:01:19.122Z,1009.79
2018-05-03T07:02:19.108Z,1009.84
2018-05-03T07:03:19.099Z,1009.78
2018-05-03T07:04:19.169Z,1009.80
2018-05-03T07:05:19.067Z,1009.80
2018-05-03T07:06:19.053Z,1009.80
2018-05-03T07:07:19.052Z,1009.84
2018-05-03T07:08:19.025Z,1009.84
2018-05-03T07:09:19.022Z,1009.86
2018-05-03T07:10:18.998Z,1009.89
2018-05-03T07:11:18.993Z,1009.88
2018-05-03T07:12:18.969Z,1009.88
2018-05-03T07:13:18.959Z,1009.90
2018-05-03T07:14:18.941Z,1009.88
2018-05-03T07:15:18.932Z,1009.89
2018-05-03T07:16:18.934Z,1009.86
2018-05-03T07:17:18.901Z,1009.90
2018-05-03T07:18:18.891Z,1009.95
2018-05-03T07:19:18.886Z,1009.98
2018-05-03T07:20:18.863Z,1010.02
2018-05-03T07:21:18.848Z,1010.00
2018-05-03T07:22:18.835Z,1010.04
2018-05-03T07:23:18.828Z,1010.07
2018-05-03T07:24:18.812Z,1010.10
2018-05-03T07:25:18.801Z,1010.12
2018-05-03T07:26:18.793Z,1010.12
2018-05-03T07:27:18.777Z,1010.11
2018-05-03T07:28:18.761Z,1010.16
2018-05-03T07:29:18.793Z,1010.22
2018-05-03T07:30:18.738Z,1010.23
2018-05-03T07:31:18.731Z,1010.28
2018-05-03T07:32:18.715Z,1010.23
2018-05-03T07:33:18.710Z,1010.48
2018-05-03T07:34:18.701Z,1010.64
2018-05-03T07:35:18.684Z,1010.62
2018-05-03T07:36:18.671Z,1010.52
2018-05-03T07:37:18.662Z,1010.51
2018-05-03T07:38:18.653Z,1010.35
2018-05-03T07:39:18.645Z,1010.89
2018-05-03T07:40:18.641Z,1010.86
2018-05-03T07:41:18.630Z,1010.73
2018-05-03T07:42:18.628Z,1010.77
2018-05-03T07:43:18.612Z,1010.78
2018-05-03T07:44:18.601Z,1010.79
2018-05-03T07:45:18.593Z,1010.73
2018-05-03T07:46:18.587Z,1010.73
2018-05-03T07:47:18.575Z,1010.49
2018-05-03T07:48:18.571Z,1010.57
2018-05-03T07:49:18.561Z,1010.69
2018-05-03T07:50:18.556Z,1010.64
2018-05-03T07:51:18.545Z,1010.63
2018-05-03T07:52:18.539Z,1010.69
2018-05-03T07:53:18.527Z,1010.70
2018-05-03T07:54:18.521Z,1010.82
2018-05-03T07:55:18.517Z,1010.90
2018-05-03T07:56:18.506Z,1011.03
2018-05-03T07:57:18.500Z,1011.07
2018-05-03T07:58:18.495Z,1011.29
2018-05-03T07:59:18.493Z,1011.22
2018-05-03T08:00:18.482Z,1011.11
2018-05-03T08:01:18.474Z,1011.03
2018-05-03T08:02:18.471Z,1010.93
2018-05-03T08:03:18.463Z,1010.95
2018-05-03T08:04:18.462Z,1010.93
2018-05-03T08:05:18.453Z,1010.85
2018-05-03T08:06:18.446Z,1010.80
2018-05-03T08:07:18.449Z,1010.75
2018-05-03T08:08:18.432Z,1010.83
2018-05-03T08:09:18.429Z,1010.93
2018-05-03T08:10:18.422Z,1010.92
2018-05-03T08:11:18.414Z,1010.95
2018-05-03T08:12:18.411Z,1010.97
2018-05-03T08:13:18.399Z,1010.97
2018-05-03T08:14:18.401Z,1010.89
2018-05-03T08:15:18.396Z,1010.97
2018-05-03T08:16:18.386Z,1011.05
2018-05-03T08:17:18.376Z,1011.06
2018-05-03T08:18:18.372Z,1011.22
2018-05-03T08:19:18.361Z,1011.36
2018-05-03T08:20:18.355Z,1011.55
2018-05-03T08:21:18.353Z,1011.59
2018-05-03T08:22:18.431Z,1011.65
2018-05-03T08:23:18.342Z,1011.51
2018-05-03T08:24:18.329Z,1011.51
2018-05-03T08:25:18.336Z,1011.60
2018-05-03T08:26:18.323Z,1011.71
2018-05-03T08:27:18.322Z,1011.45
2018-05-03T08:28:18.313Z,1011.41
2018-05-03T08:29:18.312Z,1011.42
2018-05-03T08:30:18.310Z,1011.74
2018-05-03T08:31:18.304Z,1011.68
2018-05-03T08:32:18.300Z,1011.76
2018-05-03T08:33:18.301Z,1011.72
2018-05-03T08:34:18.304Z,1011.66
2018-05-03T08:35:18.292Z,1011.68
2018-05-03T08:36:18.294Z,1011.65
2018-05-03T08:37:18.291Z,1011.49
2018-05-03T08:38:18.287Z,1011.53
2018-05-03T08:39:18.284Z,1011.72
2018-05-03T08:40:18.281Z,1011.80
2018-05-03T08:41:18.330Z,1011.55
2018-05-03T08:42:18.281Z,1011.74
2018-05-03T08:43:18.279Z,1011.94
2018-05-03T08:44:18.270Z,1012.12
2018-05-03T08:45:18.281Z,1011.70
2018-05-03T08:46:18.269Z,1011.80
2018-05-03T08:47:18.269Z,1011.71
2018-05-03T08:48:18.272Z,1011.76
2018-05-03T08:49:18.264Z,1011.82
2018-05-03T08:50:18.263Z,1012.02
2018-05-03T08:51:18.264Z,1011.88
2018-05-03T08:52:18.260Z,1011.47
2018-05-03T08:53:18.259Z,1012.03
2018-05-03T08:54:18.268Z,1011.90
2018-05-03T08:55:18.260Z,1011.98
2018-05-03T08:56:18.260Z,1011.99
2018-05-03T08:57:18.260Z,1011.98
2018-05-03T08:58:18.263Z,1011.30
2018-05-03T08:59:18.261Z,1012.01
2018-05-03T09:00:18.263Z,1011.87
2018-05-03T09:01:18.259Z,1011.93
2018-05-03T09:02:18.311Z,1011.81
2018-05-03T09:03:18.257Z,1011.41
2018-05-03T09:04:18.314Z,1011.38
2018-05-03T09:05:18.258Z,1011.33
2018-05-03T09:06:18.304Z,1011.60
2018-05-03T09:07:18.262Z,1011.45
2018-05-03T09:08:18.253Z,1011.34
2018-05-03T09:09:18.249Z,1011.38
2018-05-03T09:10:18.249Z,1011.40
2018-05-03T09:11:18.243Z,1011.41
2018-05-03T09:12:18.250Z,1011.46
2018-05-03T09:13:18.242Z,1011.41
2018-05-03T09:14:18.231Z,1011.43
2018-05-03T09:15:18.227Z,1011.51
2018-05-03T09:16:18.222Z,1011.72
2018-05-03T09:17:18.219Z,1011.55
2018-05-03T09:18:18.212Z,1011.61
2018-05-03T09:19:18.209Z,1011.72
2018-05-03T09:20:18.207Z,1011.48
2018-05-03T09:21:18.200Z,1011.69
2018-05-03T09:22:18.188Z,1011.63
2018-05-03T09:23:18.183Z,1011.66
2018-05-03T09:24:18.185Z,1011.59
2018-05-03T09:25:18.174Z,1011.52
2018-05-03T09:26:18.184Z,1011.54
2018-05-03T09:27:18.155Z,1011.54
2018-05-03T09:28:18.151Z,1011.54
2018-05-03T09:29:18.149Z,1011.49
2018-05-03T09:30:18.144Z,1011.74
2018-05-03T09:31:18.132Z,1011.74
2018-05-03T09:32:18.120Z,1011.57
2018-05-03T09:33:18.119Z,1011.52
2018-05-03T09:34:18.103Z,1011.51
2018-05-03T09:35:18.106Z,1011.55
2018-05-03T09:36:18.087Z,1011.50
2018-05-03T09:37:18.088Z,1011.49
2018-05-03T09:38:18.082Z,1011.50
2018-05-03T09:39:18.071Z,1011.52
2018-05-03T09:40:18.057Z,1011.51
2018-05-03T09:41:18.053Z,1011.49
2018-05-03T09:42:18.046Z,1011.46
2018-05-03T09:43:18.032Z,1011.60
2018-05-03T09:44:18.026Z,1011.51
2018-05-03T09:45:18.080Z,1011.66
2018-05-03T09:46:18.017Z,1011.70
2018-05-03T09:47:18.001Z,1011.68
2018-05-03T09:48:17.994Z,1011.66
2018-05-03T09:49:17.986Z,1011.62
2018-05-03T09:50:17.972Z,1011.67
2018-05-03T09:51:17.965Z,1011.74
2018-05-03T09:52:17.960Z,1011.72
2018-05-03T09:53:17.951Z,1011.69
2018-05-03T09:54:17.941Z,1011.70
2018-05-03T09:55:17.932Z,1011.73
2018-05-03T09:56:17.931Z,1011.78
2018-05-03T09:57:17.910Z,1011.78
2018-05-03T09:58:17.914Z,1011.79
2018-05-03T09:59:17.926Z,1011.85
2018-05-03T10:00:17.888Z,1011.84
2018-05-03T10:01:17.883Z,1011.82
2018-05-03T10:02:17.875Z,1011.85
2018-05-03T10:03:17.861Z,1011.85
2018-05-03T10:04:17.854Z,1011.88
2018-05-03T10:05:17.842Z,1012.01
2018-05-03T10:06:17.832Z,1011.92
2018-05-03T10:07:17.830Z,1011.98
2018-05-03T10:08:17.820Z,1011.95
2018-05-03T10:09:17.808Z,1011.97
2018-05-03T10:10:17.802Z,1011.97
2018-05-03T10:11:17.793Z,1011.91
2018-05-03T10:12:17.783Z,1011.96
2018-05-03T10:13:17.868Z,1011.91
2018-05-03T10:14:17.771Z,1011.95
2018-05-03T10:15:17.768Z,1011.92
2018-05-03T10:16:17.753Z,1011.92
2018-05-03T10:17:17.743Z,1011.92
2018-05-03T10:18:17.732Z,1011.90
2018-05-03T10:19:17.723Z,1011.90
2018-05-03T10:20:17.714Z,1011.93
2018-05-03T10:21:17.702Z,1011.93
2018-05-03T10:22:17.694Z,1011.93
2018-05-03T10:23:17.687Z,1011.92
2018-05-03T10:24:17.684Z,1011.91
2018-05-03T10:25:17.676Z,1011.88
2018-05-03T10:26:17.662Z,1011.83
2018-05-03T10:27:17.659Z,1011.88
2018-05-03T10:28:17.647Z,1011.84
2018-05-03T10:29:17.632Z,1011.88
2018-05-03T10:30:17.719Z,1011.92
2018-05-03T10:31:17.620Z,1011.91
2018-05-03T10:32:17.614Z,1011.92
2018-05-03T10:33:17.602Z,1011.96
2018-05-03T10:34:17.604Z,1011.97
2018-05-03T10:35:17.592Z,1012.05
2018-05-03T10:36:17.615Z,1011.97
2018-05-03T10:37:17.571Z,1012.02
2018-05-03T10:38:17.567Z,1011.99
2018-05-03T10:39:17.553Z,1011.99
2018-05-03T10:40:17.540Z,1012.04
2018-05-03T10:41:17.542Z,1012.01
2018-05-03T10:42:17.575Z,1012.00
2018-05-03T10:43:17.522Z,1011.96
2018-05-03T10:44:17.513Z,1012.05
2018-05-03T10:45:17.500Z,1012.04
2018-05-03T10:46:17.493Z,1011.98
2018-05-03T10:47:17.486Z,1012.01
2018-05-03T10:48:17.471Z,1012.03
2018-05-03T10:49:17.465Z,1012.03
2018-05-03T10:50:17.463Z,1012.04
2018-05-03T10:51:17.449Z,1012.10
2018-05-03T10:52:17.437Z,1012.04
2018-05-03T10:53:17.436Z,1012.03
2018-05-03T10:54:17.423Z,1011.96
2018-05-03T10:55:17.427Z,1011.96
2018-05-03T10:56:17.407Z,1011.97
2018-05-03T10:57:17.401Z,1011.97
2018-05-03T10:58:17.391Z,1011.89
2018-05-03T10:59:17.387Z,1011.99
2018-05-03T11:00:17.377Z,1012.01
2018-05-03T11:01:17.372Z,1012.00
2018-05-03T11:02:17.360Z,1011.96
2018-05-03T11:03:17.354Z,1011.92
2018-05-03T11:04:17.347Z,1011.91
2018-05-03T11:05:17.369Z,1011.96
2018-05-03T11:06:17.337Z,1011.91
2018-05-03T11:07:17.324Z,1011.92
2018-05-03T11:08:17.313Z,1011.95
2018-05-03T11:09:17.362Z,1011.94
2018-05-03T11:10:17.299Z,1011.91
2018-05-03T11:11:17.308Z,1011.94
2018-05-03T11:12:17.283Z,1011.91
2018-05-03T11:13:17.276Z,1011.92
2018-05-03T11:14:17.267Z,1011.90
2018-05-03T11:15:17.254Z,1011.88
2018-05-03T11:16:17.253Z,1011.90
2018-05-03T11:17:17.247Z,1011.93
2018-05-03T11:18:17.234Z,1011.95
2018-05-03T11:19:17.225Z,1011.97
2018-05-03T11:20:17.212Z,1012.06
2018-05-03T11:21:17.227Z,1011.97
2018-05-03T11:22:17.202Z,1011.96
2018-05-03T11:23:17.187Z,1011.98
2018-05-03T11:24:17.188Z,1011.95
2018-05-03T11:25:17.173Z,1011.98
2018-05-03T11:26:17.163Z,1011.94
2018-05-03T11:27:17.156Z,1011.93
2018-05-03T11:28:17.157Z,1011.98
2018-05-03T11:29:17.138Z,1011.98
2018-05-03T11:30:17.132Z,1012.04
2018-05-03T11:31:17.125Z,1011.98
2018-05-03T11:32:17.116Z,1012.03
2018-05-03T11:33:17.105Z,1012.02
2018-05-03T11:34:17.100Z,1011.96
2018-05-03T11:35:17.087Z,1011.96
2018-05-03T11:36:17.084Z,1012.00
2018-05-03T11:37:17.119Z,1012.02
2018-05-03T11:38:17.064Z,1011.99
2018-05-03T11:39:17.063Z,1011.95
2018-05-03T11:40:17.052Z,1011.93
2018-05-03T11:41:17.040Z,1011.99
2018-05-03T11:42:17.039Z,1011.99
2018-05-03T11:43:17.020Z,1012.04
2018-05-03T11:44:17.027Z,1012.02
2018-05-03T11:45:17.011Z,1011.99
2018-05-03T11:46:17.132Z,1012.08
2018-05-03T11:47:16.992Z,1012.11
2018-05-03T11:48:16.981Z,1012.10
2018-05-03T11:49:16.972Z,1012.10
2018-05-03T11:50:17.075Z,1012.08
2018-05-03T11:51:16.962Z,1012.07
2018-05-03T11:52:16.951Z,1012.13
2018-05-03T11:53:16.966Z,1012.10
2018-05-03T11:54:17.029Z,1012.09
2018-05-03T11:55:16.916Z,1012.03
2018-05-03T11:56:17.010Z,1012.19
2018-05-03T11:57:16.901Z,1012.07
2018-05-03T11:58:16.891Z,1012.16
2018-05-03T11:59:17.056Z,1012.15
2018-05-03T12:00:16.883Z,1012.05
2018-05-03T12:01:16.866Z,1012.06
2018-05-03T12:02:16.861Z,1012.07
2018-05-03T12:03:16.849Z,1012.04
2018-05-03T12:04:16.841Z,1012.03
2018-05-03T12:05:16.828Z,1012.02
2018-05-03T12:06:16.819Z,1012.02
2018-05-03T12:07:16.819Z,1012.03